createdAt,value
2019-04-01T00:00:41.207Z,99492.31
2019-04-01T00:03:10.926Z,99486.16
2019-04-01T00:05:39.610Z,99483.75
2019-04-01T00:08:08.241Z,99482.69
2019-04-01T00:10:36.985Z,99487.39
2019-04-01T00:13:05.642Z,99484.86
2019-04-01T00:15:34.091Z,99478.30
2019-04-01T00:18:02.522Z,99480.70
2019-04-01T00:20:31.292Z,99481.56
2019-04-01T00:22:59.948Z,99479.02
2019-04-01T00:25:28.511Z,99472.05
2019-04-01T00:27:57.170Z,99471.19
2019-04-01T00:30:25.666Z,99464.62
2019-04-01T00:32:54.396Z,99470.77
2019-04-01T00:35:23.057Z,99466.03
2019-04-01T00:37:51.802Z,99466.73
2019-04-01T00:40:20.373Z,99466.05
2019-04-01T00:42:54.528Z,99469.91
2019-04-01T00:45:23.646Z,99466.63
2019-04-01T00:47:52.201Z,99458.70
2019-04-01T00:50:20.850Z,99455.72
2019-04-01T00:52:49.510Z,99456.72
2019-04-01T00:55:18.135Z,99463.03
2019-04-01T00:57:46.816Z,99463.30
2019-04-01T01:00:17.372Z,99459.81
2019-04-01T01:02:45.914Z,99464.05
2019-04-01T01:05:14.550Z,99455.23
2019-04-01T01:07:43.211Z,99449.85
2019-04-01T01:10:12.093Z,99446.19
2019-04-01T01:12:40.651Z,99449.70
2019-04-01T01:15:09.407Z,99453.42
2019-04-01T01:17:37.984Z,99449.17
2019-04-01T01:20:06.856Z,99460.57
2019-04-01T01:22:35.507Z,99449.36
2019-04-01T01:25:04.390Z,99466.68
2019-04-01T01:27:33.047Z,99464.84
2019-04-01T01:30:01.678Z,99466.18
2019-04-01T01:32:30.542Z,99469.47
2019-04-01T01:34:59.119Z,99472.63
2019-04-01T01:37:27.735Z,99469.86
2019-04-01T01:39:56.595Z,99475.29
2019-04-01T01:42:25.220Z,99481.98
2019-04-01T01:44:56.113Z,99482.05
2019-04-01T01:47:24.710Z,99481.36
2019-04-01T01:49:53.156Z,99482.87
2019-04-01T01:52:22.698Z,99481.77
2019-04-01T01:54:51.442Z,99476.33
2019-04-01T01:57:20.143Z,99480.84
2019-04-01T01:59:48.734Z,99474.74
2019-04-01T02:02:17.375Z,99475.61
2019-04-01T02:04:46.049Z,99474.14
2019-04-01T02:07:14.658Z,99477.52
2019-04-01T02:09:43.253Z,99479.30
2019-04-01T02:12:11.953Z,99475.55
2019-04-01T02:14:40.634Z,99472.57
2019-04-01T02:17:09.373Z,99467.05
2019-04-01T02:19:37.855Z,99466.47
2019-04-01T02:22:06.602Z,99473.80
2019-04-01T02:24:35.735Z,99475.62
2019-04-01T02:27:04.417Z,99478.13
2019-04-01T02:29:33.257Z,99477.44
2019-04-01T02:32:01.951Z,99478.30
2019-04-01T02:34:30.863Z,99477.84
2019-04-01T02:36:59.674Z,99476.01
2019-04-01T02:39:28.377Z,99473.94
2019-04-01T02:41:57.013Z,99475.91
2019-04-01T02:44:25.713Z,99470.80
2019-04-01T02:46:54.363Z,99471.13
2019-04-01T02:49:22.993Z,99479.67
2019-04-01T02:51:51.556Z,99478.09
2019-04-01T02:54:20.190Z,99473.98
2019-04-01T02:56:48.761Z,99472.73
2019-04-01T02:59:17.400Z,99474.02
2019-04-01T03:01:46.082Z,99475.45
2019-04-01T03:04:14.725Z,99474.44
2019-04-01T03:06:43.333Z,99469.05
2019-04-01T03:09:11.921Z,99466.11
2019-04-01T03:11:40.581Z,99463.34
2019-04-01T03:14:09.246Z,99464.42
2019-04-01T03:16:37.785Z,99460.46
2019-04-01T03:19:06.339Z,99471.92
2019-04-01T03:21:34.875Z,99468.42
2019-04-01T03:24:03.717Z,99466.48
2019-04-01T03:26:32.398Z,99466.29
2019-04-01T03:29:01.045Z,99468.91
2019-04-01T03:31:29.758Z,99477.73
2019-04-01T03:33:58.449Z,99473.55
2019-04-01T03:36:27.109Z,99479.92
2019-04-01T03:38:55.662Z,99478.77
2019-04-01T03:41:24.403Z,99475.52
2019-04-01T03:43:52.986Z,99478.70
2019-04-01T03:46:21.703Z,99479.98
2019-04-01T03:48:50.373Z,99478.44
2019-04-01T03:51:19.062Z,99483.59
2019-04-01T03:53:47.739Z,99486.59
2019-04-01T03:56:16.388Z,99493.02
2019-04-01T03:58:44.945Z,99498.19
2019-04-01T04:01:13.527Z,99492.22
2019-04-01T04:03:42.263Z,99495.38
2019-04-01T04:06:10.833Z,99504.94
2019-04-01T04:08:39.487Z,99508.38
2019-04-01T04:11:08.174Z,99498.97
2019-04-01T04:13:36.869Z,99514.35
2019-04-01T04:16:05.581Z,99519.66
2019-04-01T04:18:34.178Z,99518.87
2019-04-01T04:21:02.731Z,99520.27
2019-04-01T04:23:31.526Z,99521.42
2019-04-01T04:26:00.177Z,99521.25
2019-04-01T04:28:28.840Z,99528.63
2019-04-01T04:30:57.469Z,99523.49
2019-04-01T04:33:26.117Z,99528.22
2019-04-01T04:35:54.700Z,99527.85
2019-04-01T04:38:23.399Z,99532.21
2019-04-01T04:40:51.914Z,99535.34
2019-04-01T04:43:20.577Z,99538.07
2019-04-01T04:45:49.136Z,99543.83
2019-04-01T04:48:17.809Z,99545.70
2019-04-01T04:50:46.526Z,99542.39
2019-04-01T04:53:15.267Z,99538.50
2019-04-01T04:55:43.987Z,99534.51
2019-04-01T04:58:12.741Z,99534.73
2019-04-01T05:00:41.379Z,99541.05
2019-04-01T05:03:10.167Z,99540.58
2019-04-01T05:05:38.758Z,99541.41
2019-04-01T05:08:07.323Z,99541.43
2019-04-01T05:10:35.871Z,99535.59
2019-04-01T05:13:04.656Z,99540.16
2019-04-01T05:15:33.611Z,99535.09
2019-04-01T05:18:02.283Z,99540.80
2019-04-01T05:20:31.625Z,99541.69
2019-04-01T05:23:01.690Z,99539.38
2019-04-01T05:25:32.029Z,99540.51
2019-04-01T05:28:02.349Z,99541.63
2019-04-01T05:30:33.065Z,99543.13
2019-04-01T05:33:03.413Z,99542.73
2019-04-01T05:35:34.661Z,99541.27
2019-04-01T05:38:04.267Z,99542.70
2019-04-01T05:40:33.998Z,99549.92
2019-04-01T05:43:02.946Z,99543.00
2019-04-01T05:45:31.714Z,99545.16
2019-04-01T05:48:00.535Z,99541.70
2019-04-01T05:50:29.122Z,99543.70
2019-04-01T05:52:57.924Z,99540.39
2019-04-01T05:55:26.759Z,99540.38
2019-04-01T05:57:55.585Z,99543.16
2019-04-01T06:00:29.870Z,99547.89
2019-04-01T06:02:58.747Z,99551.50
2019-04-01T06:05:29.670Z,99543.67
2019-04-01T06:07:58.663Z,99541.56
2019-04-01T06:10:27.344Z,99538.63
2019-04-01T06:12:56.548Z,99541.16
2019-04-01T06:15:25.303Z,99538.80
2019-04-01T06:17:54.662Z,99547.26
2019-04-01T06:20:23.348Z,99541.22
2019-04-01T06:22:52.012Z,99540.70
2019-04-01T06:25:21.163Z,99547.73
2019-04-01T06:27:50.084Z,99543.80
2019-04-01T06:30:18.957Z,99554.67
2019-04-01T06:32:47.827Z,99542.13
2019-04-01T06:35:16.407Z,99539.06
2019-04-01T06:37:45.160Z,99543.70
2019-04-01T06:40:13.934Z,99545.74
2019-04-01T06:42:42.605Z,99551.59
2019-04-01T06:45:12.771Z,99547.04
2019-04-01T06:47:41.829Z,99554.11
2019-04-01T06:50:10.807Z,99550.19
2019-04-01T06:52:39.550Z,99555.39
2019-04-01T06:55:08.444Z,99552.59
2019-04-01T06:57:37.109Z,99560.80
2019-04-01T07:00:06.207Z,99558.91
2019-04-01T07:02:35.047Z,99564.44
2019-04-01T07:05:04.119Z,99559.45
2019-04-01T07:07:32.799Z,99558.87
2019-04-01T07:10:02.196Z,99567.83
2019-04-01T07:12:31.082Z,99567.53
2019-04-01T07:14:59.704Z,99567.80
2019-04-01T07:17:28.817Z,99567.05
2019-04-01T07:19:57.486Z,99570.25
2019-04-01T07:22:26.313Z,99568.52
2019-04-01T07:24:55.159Z,99568.29
2019-04-01T07:27:24.743Z,99562.39
2019-04-01T07:29:53.411Z,99567.19
2019-04-01T07:32:22.069Z,99563.69
2019-04-01T07:34:50.868Z,99566.14
2019-04-01T07:37:19.635Z,99566.88
2019-04-01T07:39:48.364Z,99569.88
2019-04-01T07:42:17.028Z,99568.14
2019-04-01T07:44:45.696Z,99571.75
2019-04-01T07:47:14.361Z,99573.11
2019-04-01T07:49:43.006Z,99572.95
2019-04-01T07:52:11.900Z,99571.43
2019-04-01T07:54:40.872Z,99571.55
2019-04-01T07:57:09.517Z,99569.64
2019-04-01T07:59:38.308Z,99576.27
2019-04-01T08:02:06.937Z,99568.05
2019-04-01T08:04:36.119Z,99567.58
2019-04-01T08:07:05.062Z,99572.82
2019-04-01T08:09:33.697Z,99566.55
2019-04-01T08:12:02.245Z,99568.61
2019-04-01T08:14:30.921Z,99572.05
2019-04-01T08:16:59.851Z,99574.91
2019-04-01T08:19:28.413Z,99571.47
2019-04-01T08:21:57.281Z,99565.67
2019-04-01T08:24:25.892Z,99556.45
2019-04-01T08:26:54.458Z,99565.13
2019-04-01T08:29:30.208Z,99556.24
2019-04-01T08:31:53.543Z,99561.16
2019-04-01T08:34:22.229Z,99552.00
2019-04-01T08:36:50.971Z,99555.48
2019-04-01T08:39:19.737Z,99552.25
2019-04-01T08:41:48.305Z,99543.86
2019-04-01T08:44:17.482Z,99542.12
2019-04-01T08:46:46.094Z,99536.81
2019-04-01T08:49:14.744Z,99537.66
2019-04-01T08:51:43.611Z,99534.30
2019-04-01T08:54:12.217Z,99531.38
2019-04-01T08:56:40.872Z,99532.80
2019-04-01T08:59:09.756Z,99535.30
2019-04-01T09:01:38.448Z,99526.48
2019-04-01T09:04:07.048Z,99534.24
2019-04-01T09:06:35.754Z,99524.91
2019-04-01T09:09:06.039Z,99520.23
2019-04-01T09:11:38.238Z,99526.55
2019-04-01T09:14:05.515Z,99519.77
2019-04-01T09:16:35.020Z,99524.62
2019-04-01T09:19:03.791Z,99513.50
2019-04-01T09:21:32.485Z,99512.77
2019-04-01T09:24:01.072Z,99512.03
2019-04-01T09:26:29.629Z,99507.45
2019-04-01T09:28:58.307Z,99505.75
2019-04-01T09:31:26.881Z,99505.05
2019-04-01T09:33:55.442Z,99495.83
2019-04-01T09:36:24.130Z,99497.26
2019-04-01T09:38:52.822Z,99496.59
2019-04-01T09:41:21.530Z,99494.15
2019-04-01T09:43:50.186Z,99490.41
2019-04-01T09:46:18.753Z,99484.39
2019-04-01T09:48:47.410Z,99480.07
2019-04-01T09:51:16.262Z,99474.36
2019-04-01T09:53:44.871Z,99481.09
2019-04-01T09:56:13.434Z,99478.23
2019-04-01T09:58:42.041Z,99479.51
2019-04-01T10:01:10.788Z,99484.53
2019-04-01T10:03:39.794Z,99477.09
2019-04-01T10:06:10.398Z,99477.41
2019-04-01T10:08:42.680Z,99472.73
2019-04-01T10:11:12.419Z,99467.55
2019-04-01T10:13:39.879Z,99463.95
2019-04-01T10:16:08.558Z,99461.86
2019-04-01T10:18:37.161Z,99466.73
2019-04-01T10:21:05.925Z,99468.95
2019-04-01T10:23:34.571Z,99462.53
2019-04-01T10:26:03.460Z,99455.59
2019-04-01T10:28:32.489Z,99450.70
2019-04-01T10:31:01.432Z,99450.02
2019-04-01T10:33:30.210Z,99443.08
2019-04-01T10:35:58.805Z,99444.75
2019-04-01T10:38:27.548Z,99440.63
2019-04-01T10:40:56.325Z,99443.12
2019-04-01T10:43:24.858Z,99430.86
2019-04-01T10:45:53.520Z,99424.80
2019-04-01T10:48:22.222Z,99431.31
2019-04-01T10:50:51.018Z,99427.83
2019-04-01T10:53:19.610Z,99437.20
2019-04-01T10:55:48.374Z,99424.95
2019-04-01T10:58:16.989Z,99420.47
2019-04-01T11:00:45.823Z,99419.59
2019-04-01T11:03:14.404Z,99412.73
2019-04-01T11:05:43.019Z,99414.65
2019-04-01T11:08:11.585Z,99411.28
2019-04-01T11:10:40.509Z,99401.92
2019-04-01T11:13:09.211Z,99397.66
2019-04-01T11:15:37.865Z,99405.13
2019-04-01T11:18:07.076Z,99403.28
2019-04-01T11:20:36.157Z,99384.06
2019-04-01T11:23:05.508Z,99388.56
2019-04-01T11:25:34.171Z,99385.49
2019-04-01T11:28:02.952Z,99386.52
2019-04-01T11:30:31.961Z,99386.94
2019-04-01T11:33:00.756Z,99388.08
2019-04-01T11:35:29.508Z,99387.99
2019-04-01T11:37:58.053Z,99381.74
2019-04-01T11:40:26.624Z,99375.25
2019-04-01T11:42:55.578Z,99375.97
2019-04-01T11:45:24.227Z,99381.22
2019-04-01T11:47:53.111Z,99365.00
2019-04-01T11:50:21.931Z,99374.28
2019-04-01T11:52:50.812Z,99369.25
2019-04-01T11:55:19.323Z,99374.51
2019-04-01T11:57:48.103Z,99377.16
2019-04-01T12:00:18.023Z,99388.52
2019-04-01T12:02:46.794Z,99387.39
2019-04-01T12:05:15.446Z,99379.55
2019-04-01T12:07:44.126Z,99376.70
2019-04-01T12:10:13.125Z,99365.47
2019-04-01T12:12:41.688Z,99367.22
2019-04-01T12:15:12.310Z,99361.19
2019-04-01T12:17:42.113Z,99360.81
2019-04-01T12:20:11.141Z,99353.76
2019-04-01T12:22:41.263Z,99339.16
2019-04-01T12:25:10.566Z,99348.70
2019-04-01T12:27:39.460Z,99350.10
2019-04-01T12:30:08.269Z,99345.16
2019-04-01T12:32:37.164Z,99342.34
2019-04-01T12:35:06.317Z,99344.17
2019-04-01T12:37:34.971Z,99336.20
2019-04-01T12:40:04.214Z,99339.53
2019-04-01T12:42:32.865Z,99330.64
2019-04-01T12:45:01.758Z,99325.65
2019-04-01T12:47:30.808Z,99331.13
2019-04-01T12:49:59.872Z,99334.77
2019-04-01T12:52:28.498Z,99332.11
2019-04-01T12:55:00.686Z,99329.98
2019-04-01T12:57:28.152Z,99322.69
2019-04-01T12:59:56.961Z,99324.31
2019-04-01T13:02:25.520Z,99321.03
2019-04-01T13:04:54.079Z,99318.47
2019-04-01T13:07:22.659Z,99323.34
2019-04-01T13:09:51.645Z,99309.31
2019-04-01T13:12:20.670Z,99319.71
2019-04-01T13:14:49.423Z,99308.11
2019-04-01T13:17:18.011Z,99316.91
2019-04-01T13:19:46.806Z,99316.25
2019-04-01T13:22:15.388Z,99321.28
2019-04-01T13:24:44.303Z,99318.03
2019-04-01T13:27:13.076Z,99325.98
2019-04-01T13:29:41.721Z,99314.73
2019-04-01T13:32:10.567Z,99311.64
2019-04-01T13:34:39.387Z,99307.61
2019-04-01T13:37:08.099Z,99306.45
2019-04-01T13:39:37.145Z,99304.79
2019-04-01T13:42:05.807Z,99312.45
2019-04-01T13:44:37.195Z,99315.34
2019-04-01T13:47:05.438Z,99311.47
2019-04-01T13:49:34.669Z,99320.13
2019-04-01T13:52:03.992Z,99319.39
2019-04-01T13:54:32.714Z,99316.33
2019-04-01T13:57:01.366Z,99316.49
2019-04-01T13:59:30.149Z,99314.31
2019-04-01T14:01:58.895Z,99318.93
2019-04-01T14:04:27.803Z,99301.17
2019-04-01T14:06:56.562Z,99301.98
2019-04-01T14:09:25.344Z,99302.33
2019-04-01T14:11:54.425Z,99303.42
2019-04-01T14:14:23.018Z,99300.89
2019-04-01T14:16:51.603Z,99300.96
2019-04-01T14:19:20.309Z,99309.48
2019-04-01T14:21:48.893Z,99303.58
2019-04-01T14:24:17.675Z,99306.64
2019-04-01T14:26:46.359Z,99298.53
2019-04-01T14:29:16.647Z,99304.12
2019-04-01T14:31:45.479Z,99298.95
2019-04-01T14:34:22.894Z,99302.90
2019-04-01T14:36:44.831Z,99309.62
2019-04-01T14:39:13.762Z,99315.95
2019-04-01T14:41:42.733Z,99327.25
2019-04-01T14:44:11.394Z,99313.66
2019-04-01T14:46:40.620Z,99308.64
2019-04-01T14:49:09.418Z,99316.63
2019-04-01T14:51:38.168Z,99314.55
2019-04-01T14:54:07.012Z,99311.58
2019-04-01T14:56:35.797Z,99315.89
2019-04-01T14:59:04.375Z,99318.44
2019-04-01T15:01:33.341Z,99318.19
2019-04-01T15:04:02.000Z,99311.36
2019-04-01T15:06:30.680Z,99315.30
2019-04-01T15:08:59.362Z,99309.70
2019-04-01T15:11:28.052Z,99316.77
2019-04-01T15:13:59.924Z,99318.05
2019-04-01T15:16:27.483Z,99319.35
2019-04-01T15:18:56.091Z,99314.60
2019-04-01T15:21:25.132Z,99321.73
2019-04-01T15:23:54.201Z,99321.28
2019-04-01T15:26:22.762Z,99319.20
2019-04-01T15:28:51.513Z,99321.86
2019-04-01T15:31:20.184Z,99326.30
2019-04-01T15:33:49.419Z,99318.13
2019-04-01T15:36:18.891Z,99323.67
2019-04-01T15:38:47.758Z,99324.63
2019-04-01T15:41:16.528Z,99318.56
2019-04-01T15:43:45.184Z,99322.53
2019-04-01T15:46:13.721Z,99316.14
2019-04-01T15:48:43.066Z,99320.20
2019-04-01T15:51:11.617Z,99325.55
2019-04-01T15:53:40.433Z,99320.64
2019-04-01T15:56:08.988Z,99321.27
2019-04-01T15:58:37.620Z,99321.22
2019-04-01T16:01:06.375Z,99327.31
2019-04-01T16:03:35.065Z,99328.16
2019-04-01T16:06:07.447Z,99328.38
2019-04-01T16:08:34.630Z,99327.47
2019-04-01T16:11:03.491Z,99329.70
2019-04-01T16:13:32.315Z,99333.40
2019-04-01T16:16:01.195Z,99331.30
2019-04-01T16:18:30.996Z,99328.85
2019-04-01T16:20:59.867Z,99332.30
2019-04-01T16:23:28.606Z,99341.53
2019-04-01T16:25:57.156Z,99343.42
2019-04-01T16:28:25.994Z,99352.65
2019-04-01T16:30:55.325Z,99350.32
2019-04-01T16:33:24.852Z,99356.69
2019-04-01T16:35:53.413Z,99360.02
2019-04-01T16:38:22.089Z,99368.19
2019-04-01T16:40:52.413Z,99368.30
2019-04-01T16:43:21.215Z,99372.17
2019-04-01T16:45:50.191Z,99383.00
2019-04-01T16:48:18.851Z,99384.78
2019-04-01T16:50:47.520Z,99387.11
2019-04-01T16:53:16.267Z,99391.98
2019-04-01T16:55:45.152Z,99390.83
2019-04-01T16:58:13.997Z,99391.16
2019-04-01T17:00:42.575Z,99396.34
2019-04-01T17:03:13.583Z,99403.02
2019-04-01T17:05:41.828Z,99405.17
2019-04-01T17:08:10.884Z,99413.16
2019-04-01T17:10:39.747Z,99417.02
2019-04-01T17:13:08.435Z,99419.59
2019-04-01T17:15:37.616Z,99419.06
2019-04-01T17:18:06.192Z,99427.09
2019-04-01T17:20:36.527Z,99429.98
2019-04-01T17:23:05.315Z,99434.00
2019-04-01T17:25:33.855Z,99444.63
2019-04-01T17:28:03.119Z,99446.59
2019-04-01T17:30:31.783Z,99447.73
2019-04-01T17:33:00.869Z,99454.58
2019-04-01T17:35:29.756Z,99461.32
2019-04-01T17:37:58.416Z,99459.07
2019-04-01T17:40:27.183Z,99454.09
2019-04-01T17:42:55.978Z,99465.86
2019-04-01T17:45:43.234Z,99469.47
2019-04-01T17:48:21.228Z,99473.75
2019-04-01T17:50:50.819Z,99477.22
2019-04-01T17:53:19.636Z,99485.34
2019-04-01T17:55:48.636Z,99489.83
2019-04-01T17:58:17.310Z,99490.89
2019-04-01T18:00:51.065Z,99487.75
2019-04-01T18:03:19.852Z,99492.69
2019-04-01T18:05:48.757Z,99499.89
2019-04-01T18:08:17.894Z,99505.27
2019-04-01T18:10:48.792Z,99509.23
2019-04-01T18:13:17.863Z,99513.66
2019-04-01T18:15:46.761Z,99526.02
2019-04-01T18:18:26.662Z,99525.53
2019-04-01T18:20:46.384Z,99523.95
2019-04-01T18:23:15.177Z,99525.86
2019-04-01T18:25:43.920Z,99527.70
2019-04-01T18:28:13.070Z,99529.45
2019-04-01T18:30:42.483Z,99528.72
2019-04-01T18:33:11.243Z,99532.57
2019-04-01T18:35:40.235Z,99536.14
2019-04-01T18:38:22.386Z,99541.44
2019-04-01T18:40:50.968Z,99541.66
2019-04-01T18:43:19.671Z,99546.50
2019-04-01T18:45:48.376Z,99546.11
2019-04-01T18:48:17.129Z,99552.13
2019-04-01T18:50:45.969Z,99558.01
2019-04-01T18:53:15.089Z,99562.86
2019-04-01T18:55:43.627Z,99556.30
2019-04-01T18:58:12.368Z,99560.03
2019-04-01T19:00:41.089Z,99563.75
2019-04-01T19:03:10.672Z,99566.04
2019-04-01T19:05:39.604Z,99568.91
2019-04-01T19:08:08.306Z,99562.75
2019-04-01T19:10:39.329Z,99568.82
2019-04-01T19:13:12.190Z,99572.08
2019-04-01T19:15:41.850Z,99570.91
2019-04-01T19:18:11.053Z,99571.32
2019-04-01T19:20:40.407Z,99569.44
2019-04-01T19:23:09.457Z,99569.23
2019-04-01T19:25:38.863Z,99572.34
2019-04-01T19:28:07.964Z,99572.78
2019-04-01T19:30:36.888Z,99577.85
2019-04-01T19:33:06.796Z,99580.70
2019-04-01T19:35:35.858Z,99583.14
2019-04-01T19:38:07.211Z,99582.48
2019-04-01T19:40:35.497Z,99585.91
2019-04-01T19:43:04.213Z,99590.70
2019-04-01T19:45:33.063Z,99595.61
2019-04-01T19:48:02.358Z,99598.98
2019-04-01T19:50:32.467Z,99596.98
2019-04-01T19:53:02.849Z,99598.39
2019-04-01T19:55:32.128Z,99601.05
2019-04-01T19:58:00.900Z,99604.19
2019-04-01T20:00:30.655Z,99600.81
2019-04-01T20:02:59.835Z,99602.98
2019-04-01T20:05:31.428Z,99603.74
2019-04-01T20:08:00.193Z,99608.00
2019-04-01T20:10:29.080Z,99605.33
2019-04-01T20:12:57.899Z,99612.67
2019-04-01T20:15:26.626Z,99608.75
2019-04-01T20:17:55.478Z,99608.73
2019-04-01T20:20:24.335Z,99614.33
2019-04-01T20:22:53.924Z,99616.50
2019-04-01T20:25:23.091Z,99628.95
2019-04-01T20:27:51.676Z,99638.95
2019-04-01T20:30:20.840Z,99646.59
2019-04-01T20:32:49.502Z,99648.40
2019-04-01T20:35:23.809Z,99658.19
2019-04-01T20:37:49.102Z,99665.30
2019-04-01T20:40:18.143Z,99671.20
2019-04-01T20:42:47.364Z,99672.25
2019-04-01T20:45:16.222Z,99670.05
2019-04-01T20:47:45.010Z,99674.30
2019-04-01T20:50:14.062Z,99672.11
2019-04-01T20:52:42.815Z,99672.79
2019-04-01T20:55:13.281Z,99673.33
2019-04-01T20:57:42.272Z,99663.59
2019-04-01T21:00:11.350Z,99674.69
2019-04-01T21:02:40.112Z,99677.83
2019-04-01T21:05:09.184Z,99685.07
2019-04-01T21:07:37.996Z,99681.55
2019-04-01T21:10:07.295Z,99681.39
2019-04-01T21:12:36.142Z,99682.93
2019-04-01T21:15:07.066Z,99673.58
2019-04-01T21:17:36.009Z,99670.45
2019-04-01T21:20:05.467Z,99676.11
2019-04-01T21:22:34.243Z,99673.42
2019-04-01T21:25:03.062Z,99670.14
2019-04-01T21:27:31.811Z,99675.83
2019-04-01T21:30:00.497Z,99673.69
2019-04-01T21:32:29.386Z,99671.78
2019-04-01T21:34:58.002Z,99668.89
2019-04-01T21:37:26.570Z,99672.05
2019-04-01T21:39:55.429Z,99672.05
2019-04-01T21:42:24.107Z,99680.02
2019-04-01T21:44:52.765Z,99691.52
2019-04-01T21:47:21.440Z,99685.06
2019-04-01T21:49:49.992Z,99687.63
2019-04-01T21:52:18.571Z,99693.48
2019-04-01T21:54:47.258Z,99694.84
2019-04-01T21:57:15.908Z,99689.55
2019-04-01T21:59:45.143Z,99695.39
2019-04-01T22:02:15.184Z,99692.19
2019-04-01T22:04:43.767Z,99702.75
2019-04-01T22:07:12.340Z,99706.13
2019-04-01T22:09:41.092Z,99698.65
2019-04-01T22:12:09.532Z,99705.52
2019-04-01T22:14:38.201Z,99709.38
2019-04-01T22:17:06.970Z,99707.86
2019-04-01T22:19:35.541Z,99705.81
2019-04-01T22:22:04.110Z,99711.20
2019-04-01T22:24:33.032Z,99717.23
2019-04-01T22:27:04.404Z,99713.04
2019-04-01T22:29:33.196Z,99709.40
2019-04-01T22:32:01.855Z,99709.89
2019-04-01T22:34:30.591Z,99706.15
2019-04-01T22:36:59.156Z,99711.70
2019-04-01T22:39:27.802Z,99710.66
2019-04-01T22:41:58.257Z,99706.91
2019-04-01T22:44:29.459Z,99705.04
2019-04-01T22:46:58.004Z,99709.15
2019-04-01T22:49:26.762Z,99708.22
2019-04-01T22:51:55.335Z,99718.22
2019-04-01T22:54:23.923Z,99719.45
2019-04-01T22:56:52.583Z,99725.13
2019-04-01T22:59:21.160Z,99713.86
2019-04-01T23:01:49.750Z,99720.45
2019-04-01T23:04:18.305Z,99722.70
2019-04-01T23:06:47.044Z,99716.27
2019-04-01T23:09:15.702Z,99716.81
2019-04-01T23:11:44.382Z,99725.48
2019-04-01T23:14:13.067Z,99720.31
2019-04-01T23:16:41.778Z,99719.81
2019-04-01T23:19:10.450Z,99715.47
2019-04-01T23:21:39.143Z,99717.59
2019-04-01T23:24:07.731Z,99718.00
2019-04-01T23:26:36.492Z,99717.64
2019-04-01T23:29:05.080Z,99718.00
2019-04-01T23:31:33.678Z,99729.16
2019-04-01T23:34:02.370Z,99722.81
2019-04-01T23:36:31.155Z,99722.72
2019-04-01T23:38:59.848Z,99723.78
2019-04-01T23:41:30.064Z,99723.48
2019-04-01T23:43:58.671Z,99726.19
2019-04-01T23:46:27.330Z,99726.52
2019-04-01T23:48:55.995Z,99724.91
2019-04-01T23:51:24.566Z,99722.39
2019-04-01T23:53:53.371Z,99724.13
2019-04-01T23:56:21.953Z,99727.51
2019-04-01T23:58:51.189Z,99736.48
